createdAt,value
2022-10-23T00:00:49.306Z,96319.06
2022-10-23T00:03:15.858Z,96317.41
2022-10-23T00:05:47.280Z,96316.78
2022-10-23T00:08:15.934Z,96312.97
2022-10-23T00:10:43.305Z,96302.09
2022-10-23T00:13:10.687Z,96302.25
2022-10-23T00:15:38.555Z,96308.59
2022-10-23T00:18:07.580Z,96307.56
2022-10-23T00:20:34.428Z,96299.28
2022-10-23T00:23:01.016Z,96298.94
2022-10-23T00:25:28.597Z,96300.72
2022-10-23T00:27:55.377Z,96291.59
2022-10-23T00:30:24.083Z,96297.38
2022-10-23T00:32:51.588Z,96300.03
2022-10-23T00:35:22.010Z,96300.41
2022-10-23T00:37:49.041Z,96305.75
2022-10-23T00:40:19.477Z,96304.91
2022-10-23T00:42:49.877Z,96307.66
2022-10-23T00:45:17.129Z,96303.00
2022-10-23T00:47:44.525Z,96308.19
2022-10-23T00:50:12.757Z,96300.38
2022-10-23T00:52:40.481Z,96296.84
2022-10-23T00:55:08.664Z,96302.59
2022-10-23T00:57:36.186Z,96305.31
2022-10-23T01:00:03.467Z,96296.41
2022-10-23T01:02:29.935Z,96294.41
2022-10-23T01:04:56.723Z,96307.56
2022-10-23T01:07:23.729Z,96303.84
2022-10-23T01:09:50.689Z,96304.47
2022-10-23T01:12:19.348Z,96293.84
2022-10-23T01:14:47.341Z,96295.13
2022-10-23T01:17:17.022Z,96295.38
2022-10-23T01:19:44.387Z,96297.59
2022-10-23T01:22:11.420Z,96301.13
2022-10-23T01:24:38.360Z,96299.22
2022-10-23T01:27:06.056Z,96302.00
2022-10-23T01:29:32.606Z,96298.91
2022-10-23T01:31:59.294Z,96297.84
2022-10-23T01:34:26.706Z,96297.44
2022-10-23T01:36:54.058Z,96289.34
2022-10-23T01:39:21.479Z,96280.53
2022-10-23T01:41:48.128Z,96276.84
2022-10-23T01:44:14.633Z,96279.38
2022-10-23T01:46:43.138Z,96270.78
2022-10-23T01:49:14.774Z,96279.19
2022-10-23T01:51:43.147Z,96280.41
2022-10-23T01:54:10.076Z,96276.34
2022-10-23T01:56:36.823Z,96264.75
2022-10-23T01:59:05.317Z,96266.84
2022-10-23T02:01:32.307Z,96265.84
2022-10-23T02:06:26.129Z,96262.66
2022-10-23T02:08:53.123Z,96263.47
2022-10-23T02:11:19.950Z,96253.88
2022-10-23T02:13:46.569Z,96251.31
2022-10-23T02:16:13.459Z,96258.34
2022-10-23T02:18:42.945Z,96245.69
2022-10-23T02:21:12.899Z,96241.38
2022-10-23T02:23:39.631Z,96255.31
2022-10-23T02:26:08.641Z,96245.53
2022-10-23T02:28:38.519Z,96246.50
2022-10-23T02:31:07.007Z,96248.31
2022-10-23T02:33:35.774Z,96242.66
2022-10-23T02:36:12.876Z,96235.53
2022-10-23T02:38:40.446Z,96235.16
2022-10-23T02:41:11.122Z,96234.19
2022-10-23T02:43:38.070Z,96234.97
2022-10-23T02:46:06.836Z,96230.75
2022-10-23T02:48:35.676Z,96233.47
2022-10-23T02:51:02.628Z,96223.44
2022-10-23T02:53:29.572Z,96226.66
2022-10-23T02:55:57.202Z,96227.38
2022-10-23T02:58:24.192Z,96222.22
2022-10-23T03:00:51.157Z,96225.47
2022-10-23T03:03:18.039Z,96230.25
2022-10-23T03:05:45.835Z,96228.59
2022-10-23T03:08:12.834Z,96219.13
2022-10-23T03:10:39.891Z,96209.78
2022-10-23T03:13:07.216Z,96208.75
2022-10-23T03:15:33.977Z,96205.56
2022-10-23T03:18:05.235Z,96187.00
2022-10-23T03:20:33.501Z,96190.09
2022-10-23T03:23:03.727Z,96193.34
2022-10-23T03:25:33.506Z,96194.53
2022-10-23T03:28:03.244Z,96193.63
2022-10-23T03:30:30.063Z,96189.78
2022-10-23T03:32:57.713Z,96201.13
2022-10-23T03:35:24.330Z,96208.63
2022-10-23T03:37:51.828Z,96217.53
2022-10-23T03:40:21.323Z,96215.88
2022-10-23T03:42:48.696Z,96210.00
2022-10-23T03:45:18.995Z,96208.97
2022-10-23T03:47:45.954Z,96217.53
2022-10-23T03:50:17.299Z,96211.88
2022-10-23T03:52:44.254Z,96218.41
2022-10-23T03:55:11.071Z,96219.25
2022-10-23T03:57:38.342Z,96213.38
2022-10-23T04:00:05.167Z,96204.38
2022-10-23T04:02:32.045Z,96203.31
2022-10-23T04:05:03.241Z,96212.06
2022-10-23T04:07:29.996Z,96212.97
2022-10-23T04:09:58.677Z,96203.50
2022-10-23T04:12:35.876Z,96210.59
2022-10-23T04:15:03.323Z,96212.50
2022-10-23T04:17:36.220Z,96208.84
2022-10-23T04:20:02.879Z,96206.91
2022-10-23T04:22:30.365Z,96205.13
2022-10-23T04:24:57.631Z,96206.19
2022-10-23T04:27:24.334Z,96217.56
2022-10-23T04:29:54.252Z,96212.34
2022-10-23T04:32:23.657Z,96220.19
2022-10-23T04:34:50.377Z,96216.94
2022-10-23T04:37:18.129Z,96210.28
2022-10-23T04:39:45.100Z,96210.31
2022-10-23T04:42:12.027Z,96203.22
2022-10-23T04:44:39.004Z,96205.28
2022-10-23T04:47:05.794Z,96210.13
2022-10-23T04:49:32.740Z,96211.06
2022-10-23T04:51:59.613Z,96199.41
2022-10-23T04:54:26.527Z,96201.59
2022-10-23T04:56:53.380Z,96209.66
2022-10-23T04:59:20.563Z,96217.09
2022-10-23T05:01:48.255Z,96208.78
2022-10-23T05:04:15.549Z,96224.56
2022-10-23T05:06:42.562Z,96221.50
2022-10-23T05:09:09.221Z,96215.47
2022-10-23T05:11:36.550Z,96216.00
2022-10-23T05:14:03.422Z,96215.91
2022-10-23T05:16:32.271Z,96211.31
2022-10-23T05:19:03.071Z,96196.00
2022-10-23T05:21:30.073Z,96198.06
2022-10-23T05:23:56.804Z,96208.97
2022-10-23T05:26:24.626Z,96211.34
2022-10-23T05:28:51.321Z,96212.50
2022-10-23T05:31:18.334Z,96219.88
2022-10-23T05:33:46.052Z,96216.63
2022-10-23T05:36:12.583Z,96217.53
2022-10-23T05:38:40.084Z,96212.81
2022-10-23T05:41:07.464Z,96206.19
2022-10-23T05:43:34.385Z,96203.53
2022-10-23T05:46:02.173Z,96196.44
2022-10-23T05:48:34.733Z,96203.97
2022-10-23T05:51:01.731Z,96207.63
2022-10-23T05:53:30.172Z,96208.81
2022-10-23T05:55:56.901Z,96202.75
2022-10-23T05:58:24.286Z,96209.72
2022-10-23T06:00:58.392Z,96208.53
2022-10-23T06:03:25.989Z,96214.00
2022-10-23T06:05:53.591Z,96201.31
2022-10-23T06:08:20.749Z,96193.72
2022-10-23T06:10:48.574Z,96199.97
2022-10-23T06:13:15.248Z,96199.09
2022-10-23T06:15:42.395Z,96212.06
2022-10-23T06:18:09.474Z,96201.75
2022-10-23T06:20:36.433Z,96201.44
2022-10-23T06:23:03.368Z,96209.88
2022-10-23T06:25:30.933Z,96211.44
2022-10-23T06:28:04.461Z,96206.13
2022-10-23T06:30:32.276Z,96204.84
2022-10-23T06:33:03.311Z,96215.47
2022-10-23T06:35:34.713Z,96211.75
2022-10-23T06:38:01.733Z,96217.69
2022-10-23T06:40:29.358Z,96218.28
2022-10-23T06:42:58.080Z,96213.72
2022-10-23T06:45:24.959Z,96211.78
2022-10-23T06:47:52.026Z,96208.38
2022-10-23T06:50:19.185Z,96203.53
2022-10-23T06:52:47.664Z,96196.88
2022-10-23T06:55:15.100Z,96198.59
2022-10-23T06:57:42.925Z,96211.03
2022-10-23T07:00:09.951Z,96201.00
2022-10-23T07:02:37.199Z,96199.53
2022-10-23T07:05:07.641Z,96204.88
2022-10-23T07:07:36.498Z,96202.09
2022-10-23T07:10:03.942Z,96205.03
2022-10-23T07:12:30.806Z,96201.88
2022-10-23T07:14:57.734Z,96203.34
2022-10-23T07:17:26.569Z,96205.34
2022-10-23T07:19:54.310Z,96201.84
2022-10-23T07:22:21.127Z,96199.56
2022-10-23T07:24:48.147Z,96199.88
2022-10-23T07:27:14.907Z,96200.19
2022-10-23T07:29:43.421Z,96204.72
2022-10-23T07:32:10.166Z,96194.00
2022-10-23T07:34:44.547Z,96198.28
2022-10-23T07:37:12.183Z,96196.75
2022-10-23T07:39:39.170Z,96183.38
2022-10-23T07:42:08.042Z,96182.91
2022-10-23T07:44:35.126Z,96184.75
2022-10-23T07:47:02.819Z,96183.28
2022-10-23T07:49:32.881Z,96182.03
2022-10-23T07:51:59.915Z,96186.19
2022-10-23T07:54:26.687Z,96172.63
2022-10-23T07:56:53.802Z,96179.56
2022-10-23T07:59:21.067Z,96181.00
2022-10-23T08:01:49.545Z,96181.31
2022-10-23T08:04:20.116Z,96182.50
2022-10-23T08:06:47.054Z,96180.47
2022-10-23T08:09:13.897Z,96181.06
2022-10-23T08:11:40.924Z,96192.13
2022-10-23T08:14:07.937Z,96188.22
2022-10-23T08:16:34.705Z,96182.91
2022-10-23T08:19:01.373Z,96192.28
2022-10-23T08:21:27.929Z,96191.38
2022-10-23T08:23:54.762Z,96181.06
2022-10-23T08:26:21.559Z,96180.28
2022-10-23T08:28:49.963Z,96183.63
2022-10-23T08:31:17.202Z,96180.63
2022-10-23T08:33:44.715Z,96180.72
2022-10-23T08:36:13.616Z,96183.91
2022-10-23T08:38:40.559Z,96180.69
2022-10-23T08:41:07.855Z,96181.06
2022-10-23T08:43:34.705Z,96184.00
2022-10-23T08:46:03.342Z,96179.34
2022-10-23T08:48:32.648Z,96166.53
2022-10-23T08:51:00.135Z,96175.28
2022-10-23T08:53:27.166Z,96182.06
2022-10-23T08:55:54.160Z,96171.41
2022-10-23T08:58:22.017Z,96171.66
2022-10-23T09:00:49.056Z,96168.56
2022-10-23T09:03:16.045Z,96169.03
2022-10-23T09:05:42.964Z,96159.94
2022-10-23T09:08:10.199Z,96160.38
2022-10-23T09:10:37.730Z,96164.56
2022-10-23T09:13:07.556Z,96168.25
2022-10-23T09:15:35.146Z,96160.50
2022-10-23T09:18:02.271Z,96150.63
2022-10-23T09:20:28.860Z,96146.00
2022-10-23T09:22:56.031Z,96142.16
2022-10-23T09:25:24.179Z,96154.06
2022-10-23T09:27:53.287Z,96162.34
2022-10-23T09:30:22.871Z,96146.63
2022-10-23T09:32:49.737Z,96146.25
2022-10-23T09:35:18.366Z,96156.53
2022-10-23T09:37:45.566Z,96145.19
2022-10-23T09:40:12.654Z,96145.28
2022-10-23T09:42:39.476Z,96163.66
2022-10-23T09:45:10.367Z,96144.75
2022-10-23T09:47:38.109Z,96150.69
2022-10-23T09:50:05.132Z,96149.25
2022-10-23T09:52:33.129Z,96160.81
2022-10-23T09:55:02.001Z,96163.69
2022-10-23T09:57:28.996Z,96160.03
2022-10-23T09:59:56.064Z,96159.09
2022-10-23T10:02:23.698Z,96159.50
2022-10-23T10:04:52.214Z,96168.38
2022-10-23T10:07:20.335Z,96171.53
2022-10-23T10:09:51.662Z,96168.06
2022-10-23T10:12:19.142Z,96178.22
2022-10-23T10:14:45.772Z,96174.53
2022-10-23T10:17:13.364Z,96181.94
2022-10-23T10:19:41.910Z,96199.81
2022-10-23T10:22:10.880Z,96207.63
2022-10-23T10:24:38.311Z,96196.41
2022-10-23T10:27:04.901Z,96207.22
2022-10-23T10:29:31.760Z,96203.47
2022-10-23T10:31:59.414Z,96183.53
2022-10-23T10:34:26.252Z,96200.84
2022-10-23T10:36:53.173Z,96196.84
2022-10-23T10:39:25.468Z,96154.13
2022-10-23T10:41:56.039Z,96162.69
2022-10-23T10:56:30.412Z,96167.28
2022-10-23T10:58:57.392Z,96177.09
2022-10-23T11:01:25.078Z,96179.69
2022-10-23T11:03:56.945Z,96184.63
2022-10-23T11:06:23.552Z,96160.47
2022-10-23T11:08:58.068Z,96118.81
2022-10-23T11:11:32.707Z,96089.19
2022-10-23T11:13:59.494Z,96101.03
2022-10-23T11:16:26.337Z,96140.09
2022-10-23T11:18:53.990Z,96106.81
2022-10-23T11:21:21.245Z,96112.34
2022-10-23T11:23:48.383Z,96142.28
2022-10-23T11:26:19.686Z,96104.22
2022-10-23T11:28:47.036Z,96092.94
2022-10-23T11:31:18.611Z,96106.53
2022-10-23T11:33:47.179Z,96109.69
2022-10-23T11:38:56.032Z,96116.91
2022-10-23T11:41:26.837Z,96094.28
2022-10-23T11:43:55.993Z,96089.22
2022-10-23T11:46:23.041Z,96068.41
2022-10-23T11:48:50.595Z,96057.56
2022-10-23T11:51:18.165Z,96079.31
2022-10-23T11:53:45.038Z,96069.13
2022-10-23T11:56:15.390Z,96057.41
2022-10-23T11:58:42.903Z,96063.81
2022-10-23T12:01:12.184Z,96085.47
2022-10-23T12:03:38.898Z,96089.63
2022-10-23T12:06:06.807Z,96070.91
2022-10-23T12:08:33.479Z,96062.97
2022-10-23T12:11:02.814Z,96059.25
2022-10-23T12:13:31.362Z,96070.28
2022-10-23T12:16:00.748Z,96061.13
2022-10-23T12:18:28.945Z,96036.78
2022-10-23T12:20:57.097Z,96035.28
2022-10-23T12:23:26.046Z,96042.72
2022-10-23T12:25:53.925Z,96049.84
2022-10-23T12:28:21.751Z,96051.91
2022-10-23T12:30:49.242Z,96047.03
2022-10-23T12:33:17.319Z,96038.25
2022-10-23T12:35:48.935Z,96042.34
2022-10-23T12:38:16.086Z,96021.75
2022-10-23T12:43:26.342Z,96009.53
2022-10-23T12:45:53.388Z,96016.50
2022-10-23T12:48:20.140Z,96020.41
2022-10-23T12:53:57.161Z,96011.78
2022-10-23T12:56:29.523Z,96016.13
2022-10-23T12:59:00.649Z,96024.56
2022-10-23T13:01:27.914Z,96011.59
2022-10-23T13:03:57.727Z,96010.88
2022-10-23T13:06:25.355Z,96007.41
2022-10-23T13:08:53.255Z,96014.81
2022-10-23T13:11:20.780Z,96005.25
2022-10-23T13:13:50.834Z,96007.66
2022-10-23T13:16:20.936Z,95999.47
2022-10-23T13:18:48.180Z,95992.94
2022-10-23T13:21:15.394Z,95993.81
2022-10-23T13:23:53.494Z,95992.00
2022-10-23T13:26:24.620Z,95992.88
2022-10-23T13:28:55.032Z,96007.53
2022-10-23T13:31:32.707Z,96010.25
2022-10-23T13:34:01.538Z,96009.25
2022-10-23T13:39:13.374Z,95990.56
2022-10-23T13:41:40.189Z,95989.47
2022-10-23T13:44:07.612Z,95975.72
2022-10-23T13:46:35.698Z,95998.44
2022-10-23T13:49:08.318Z,95983.28
2022-10-23T13:51:38.808Z,95980.91
2022-10-23T13:54:10.295Z,95981.66
2022-10-23T13:56:38.028Z,95979.31
2022-10-23T13:59:07.606Z,95981.97
2022-10-23T14:01:39.227Z,95973.91
2022-10-23T14:04:08.287Z,95947.13
2022-10-23T14:09:15.888Z,95941.94
2022-10-23T14:11:50.019Z,95948.28
2022-10-23T14:14:17.558Z,95965.84
2022-10-23T14:22:04.239Z,95951.88
2022-10-23T14:24:31.254Z,95943.13
2022-10-23T14:27:00.175Z,95942.16
2022-10-23T14:29:28.628Z,95954.69
2022-10-23T14:31:56.302Z,95942.53
2022-10-23T14:34:23.794Z,95946.22
2022-10-23T14:37:03.726Z,95951.09
2022-10-23T14:39:40.359Z,95949.38
2022-10-23T14:42:07.593Z,95953.41
2022-10-23T14:44:34.449Z,95947.84
2022-10-23T14:47:03.989Z,95935.06
2022-10-23T14:49:41.193Z,95929.72
2022-10-23T14:54:48.724Z,95941.34
2022-10-23T14:57:42.688Z,95933.06
2022-10-23T15:00:16.703Z,95927.75
2022-10-23T15:02:51.279Z,95930.34
2022-10-23T15:08:07.853Z,95929.69
2022-10-23T15:10:37.233Z,95925.63
2022-10-23T15:15:50.564Z,95926.34
2022-10-23T15:18:17.854Z,95903.13
2022-10-23T15:24:03.337Z,95895.63
2022-10-23T15:26:30.804Z,95900.81
2022-10-23T15:28:58.488Z,95909.75
2022-10-23T15:31:25.621Z,95895.63
2022-10-23T15:33:52.803Z,95901.47
2022-10-23T15:36:20.391Z,95902.78
2022-10-23T15:38:50.526Z,95904.00
2022-10-23T15:44:06.186Z,95922.66
2022-10-23T15:46:33.674Z,95943.06
2022-10-23T15:49:03.570Z,95946.31
2022-10-23T15:51:30.650Z,95940.41
2022-10-23T15:54:02.116Z,95937.00
2022-10-23T15:56:35.038Z,95922.66
2022-10-23T15:59:03.797Z,95916.69
2022-10-23T16:01:35.474Z,95915.00
2022-10-23T16:04:03.024Z,95923.56
2022-10-23T16:06:33.471Z,95920.91
2022-10-23T16:11:40.728Z,95940.34
2022-10-23T16:14:09.927Z,95958.97
2022-10-23T16:16:37.391Z,95961.56
2022-10-23T16:19:04.153Z,95971.72
2022-10-23T16:21:31.680Z,95976.03
2022-10-23T16:24:01.976Z,95965.50
2022-10-23T16:26:34.097Z,95968.47
2022-10-23T16:29:01.010Z,95976.94
2022-10-23T16:31:28.770Z,95966.44
2022-10-23T16:36:29.335Z,95968.59
2022-10-23T16:38:58.234Z,95977.13
2022-10-23T16:41:30.001Z,95977.25
2022-10-23T16:44:04.505Z,95992.69
2022-10-23T16:46:33.458Z,95991.72
2022-10-23T16:49:02.560Z,95994.41
2022-10-23T16:51:33.705Z,95982.00
2022-10-23T16:54:01.500Z,95985.31
2022-10-23T16:56:28.656Z,95989.97
2022-10-23T17:01:27.361Z,95994.88
2022-10-23T17:03:54.948Z,96010.94
2022-10-23T17:06:25.444Z,96010.31
2022-10-23T17:09:04.761Z,96018.69
2022-10-23T17:11:31.556Z,96020.88
2022-10-23T17:13:59.406Z,96036.69
2022-10-23T17:16:29.713Z,96049.03
2022-10-23T17:18:57.626Z,96069.66
2022-10-23T17:21:24.572Z,96077.66
2022-10-23T17:23:52.521Z,96100.69
2022-10-23T17:26:20.101Z,96118.47
2022-10-23T17:28:48.934Z,96141.28
2022-10-23T17:31:18.691Z,96158.66
2022-10-23T17:33:46.084Z,96163.28
2022-10-23T17:39:36.500Z,96196.09
2022-10-23T17:42:05.897Z,96196.75
2022-10-23T17:44:32.944Z,96196.38
2022-10-23T17:47:01.586Z,96217.75
2022-10-23T17:49:28.829Z,96213.44
2022-10-23T17:51:57.829Z,96243.78
2022-10-23T17:54:24.829Z,96251.94
2022-10-23T17:56:51.723Z,96258.31
2022-10-23T17:59:19.350Z,96254.50
2022-10-23T18:01:46.247Z,96259.16
2022-10-23T18:04:15.877Z,96261.03
2022-10-23T18:06:53.518Z,96259.84
2022-10-23T18:09:22.276Z,96256.03
2022-10-23T18:11:49.524Z,96260.53
2022-10-23T18:14:16.388Z,96253.84
2022-10-23T18:16:43.269Z,96249.66
2022-10-23T18:19:10.617Z,96244.03
2022-10-23T18:21:41.215Z,96232.09
2022-10-23T18:24:10.443Z,96239.28
2022-10-23T18:26:38.204Z,96252.13
2022-10-23T18:29:05.986Z,96267.09
2022-10-23T18:31:34.808Z,96260.78
2022-10-23T18:34:02.607Z,96276.88
2022-10-23T18:36:31.832Z,96266.34
2022-10-23T18:41:40.135Z,96242.03
2022-10-23T18:44:11.478Z,96227.34
2022-10-23T18:46:39.047Z,96244.09
2022-10-23T18:49:06.624Z,96284.84
2022-10-23T18:51:35.328Z,96258.34
2022-10-23T18:54:02.283Z,96294.16
2022-10-23T18:56:29.236Z,96290.69
2022-10-23T18:58:56.347Z,96302.88
2022-10-23T19:01:25.102Z,96273.22
2022-10-23T19:03:52.978Z,96272.50
2022-10-23T19:06:19.956Z,96285.00
2022-10-23T19:08:46.789Z,96277.91
2022-10-23T19:11:14.176Z,96228.72
2022-10-23T19:13:41.082Z,96181.06
2022-10-23T19:16:07.888Z,96191.28
2022-10-23T19:18:38.293Z,96224.84
2022-10-23T19:21:05.067Z,96216.72
2022-10-23T19:23:31.977Z,96203.53
2022-10-23T19:26:07.693Z,96192.75
2022-10-23T19:28:37.679Z,96152.16
2022-10-23T19:31:05.248Z,96132.66
2022-10-23T19:33:32.215Z,96184.03
2022-10-23T19:36:05.046Z,96194.09
2022-10-23T19:38:42.885Z,96192.16
2022-10-23T19:41:09.812Z,96177.19
2022-10-23T19:43:36.883Z,96156.25
2022-10-23T19:46:06.307Z,96145.56
2022-10-23T19:48:37.917Z,96138.34
2022-10-23T19:51:05.596Z,96118.22
2022-10-23T19:53:32.564Z,96119.19
2022-10-23T19:55:59.385Z,96124.19
2022-10-23T19:58:26.924Z,96105.50
2022-10-23T20:00:53.818Z,96110.47
2022-10-23T20:03:21.389Z,96122.09
2022-10-23T20:05:50.132Z,96115.72
2022-10-23T20:08:17.236Z,96118.03
2022-10-23T20:10:44.074Z,96108.91
2022-10-23T20:13:20.139Z,96114.63
2022-10-23T20:15:47.312Z,96105.22
2022-10-23T20:18:14.876Z,96115.47
2022-10-23T20:20:41.967Z,96119.47
2022-10-23T20:23:09.079Z,96141.41
2022-10-23T20:25:35.977Z,96139.97
2022-10-23T20:28:02.670Z,96134.91
2022-10-23T20:30:30.271Z,96150.28
2022-10-23T20:32:59.197Z,96177.84
2022-10-23T20:35:26.883Z,96166.88
2022-10-23T20:37:53.759Z,96134.38
2022-10-23T20:40:20.653Z,96111.97
2022-10-23T20:42:47.721Z,96089.50
2022-10-23T20:45:14.652Z,96097.19
2022-10-23T20:47:45.320Z,96099.16
2022-10-23T20:50:14.693Z,96115.28
2022-10-23T20:52:41.652Z,96118.41
2022-10-23T20:55:08.472Z,96127.53
2022-10-23T20:57:36.091Z,96140.25
2022-10-23T21:00:03.918Z,96143.31
2022-10-23T21:02:35.392Z,96165.50
2022-10-23T21:05:02.922Z,96178.28
2022-10-23T21:07:30.842Z,96183.69
2022-10-23T21:09:59.099Z,96172.78
2022-10-23T21:12:25.890Z,96152.16
2022-10-23T21:14:53.188Z,96148.19
2022-10-23T21:17:27.646Z,96157.91
2022-10-23T21:19:55.096Z,96165.28
2022-10-23T21:22:22.794Z,96173.72
2022-10-23T21:24:49.862Z,96158.84
2022-10-23T21:27:16.723Z,96142.03
2022-10-23T21:29:43.967Z,96145.13
2022-10-23T21:32:22.210Z,96153.88
2022-10-23T21:34:49.263Z,96120.13
2022-10-23T21:37:16.481Z,96102.50
2022-10-23T21:39:45.711Z,96132.56
2022-10-23T21:42:15.562Z,96125.56
2022-10-23T21:44:44.076Z,96122.38
2022-10-23T21:47:12.811Z,96155.47
2022-10-23T21:49:39.867Z,96137.72
2022-10-23T21:52:06.932Z,96117.72
2022-10-23T21:54:33.670Z,96137.25
2022-10-23T21:57:01.209Z,96146.44
2022-10-23T21:59:33.147Z,96156.47
2022-10-23T22:02:02.876Z,96141.72
2022-10-23T22:04:30.520Z,96134.94
2022-10-23T22:06:57.191Z,96156.25
2022-10-23T22:09:25.341Z,96155.22
2022-10-23T22:11:52.224Z,96141.44
2022-10-23T22:14:21.502Z,96163.69
2022-10-23T22:16:48.430Z,96156.75
2022-10-23T22:19:15.165Z,96128.53
2022-10-23T22:21:42.484Z,96130.97
2022-10-23T22:24:11.535Z,96103.16
2022-10-23T22:26:40.663Z,96140.84
2022-10-23T22:29:09.121Z,96162.47
2022-10-23T22:31:39.648Z,96183.03
2022-10-23T22:34:18.567Z,96193.22
2022-10-23T22:36:53.223Z,96206.22
2022-10-23T22:39:19.837Z,96274.00
2022-10-23T22:41:46.914Z,96269.91
2022-10-23T22:44:13.818Z,96271.66
2022-10-23T22:46:40.807Z,96284.66
2022-10-23T22:49:07.419Z,96285.44
2022-10-23T22:51:38.727Z,96241.59
2022-10-23T22:54:06.141Z,96259.97
2022-10-23T22:56:34.698Z,96232.00
2022-10-23T22:59:02.105Z,96243.78
2022-10-23T23:01:29.163Z,96244.78
2022-10-23T23:03:58.183Z,96227.00
2022-10-23T23:06:28.163Z,96265.16
2022-10-23T23:08:55.817Z,96243.44
2022-10-23T23:11:22.913Z,96238.63
2022-10-23T23:13:49.922Z,96217.03
2022-10-23T23:16:16.646Z,96207.38
2022-10-23T23:18:44.514Z,96211.53
2022-10-23T23:21:11.438Z,96232.41
2022-10-23T23:23:38.313Z,96235.19
2022-10-23T23:26:05.027Z,96214.16
2022-10-23T23:28:36.276Z,96212.38
2022-10-23T23:31:03.873Z,96228.09
2022-10-23T23:33:32.871Z,96234.56
2022-10-23T23:36:01.121Z,96255.25
2022-10-23T23:38:28.278Z,96269.91
2022-10-23T23:40:56.783Z,96254.34
2022-10-23T23:43:24.305Z,96237.00
2022-10-23T23:45:51.316Z,96255.50
2022-10-23T23:48:18.272Z,96281.34
2022-10-23T23:50:47.405Z,96282.44
2022-10-23T23:53:14.501Z,96267.59
2022-10-23T23:58:10.866Z,96230.78
